Time;durP1;ratioP1;P1;durP2;ratioP2;P2;SDS_P1;SDS_P2;PMS_P1;PMS_P2;Temp;Humidity;BMP_temperature;BMP_pressure;BME280_temperature;BME280_humidity;BME280_pressure;Samples;Min_cycle;Max_cycle;Signal;HPM_P1;HPM_P2
2022/06/03 04:32:53;;;;;;;7.07;6.37;;;12.70;99.90;;;;;;4894527;29;20532;-74
2022/06/03 04:35:40;;;;;;;8.80;7.43;;;12.70;99.90;;;;;;4886953;29;20855;-74
2022/06/03 04:38:31;;;;;;;7.97;7.23;;;12.80;99.90;;;;;;4883373;29;20430;-76
2022/06/03 04:41:22;;;;;;;9.10;6.73;;;12.80;99.90;;;;;;4885796;29;20456;-73
2022/06/03 04:44:09;;;;;;;10.63;6.90;;;12.90;99.90;;;;;;4884234;29;20424;-74
2022/06/03 04:46:53;;;;;;;9.07;6.40;;;13.00;99.90;;;;;;4887114;29;21004;-76
2022/06/03 04:49:36;;;;;;;7.27;6.57;;;13.10;99.90;;;;;;4887830;29;20441;-76
2022/06/03 04:52:34;;;;;;;7.57;6.70;;;13.10;99.90;;;;;;4888540;29;20837;-74
2022/06/03 04:55:18;;;;;;;7.70;6.50;;;13.20;99.90;;;;;;4884160;29;20445;-76
2022/06/03 04:58:22;;;;;;;9.67;6.47;;;13.40;99.90;;;;;;4883191;29;20433;-75
2022/06/03 05:00:58;;;;;;;6.23;5.63;;;13.50;99.90;;;;;;4878110;29;20855;-76
2022/06/03 05:04:01;;;;;;;6.87;6.17;;;13.60;99.90;;;;;;4893816;29;20440;-76
2022/06/03 05:07:04;;;;;;;7.20;6.50;;;13.70;99.90;;;;;;4896752;29;20842;-75
2022/06/03 05:10:08;;;;;;;7.23;6.53;;;13.70;99.90;;;;;;4896737;29;20440;-75
2022/06/03 05:13:11;;;;;;;9.03;7.67;;;13.80;99.90;;;;;;4896656;29;20440;-75
2022/06/03 05:15:56;;;;;;;7.10;6.40;;;14.00;99.90;;;;;;4896377;29;20480;-75
2022/06/03 05:18:44;;;;;;;7.30;6.57;;;14.30;99.90;;;;;;4877348;29;20457;-75
2022/06/03 05:21:32;;;;;;;6.50;5.90;;;14.30;99.90;;;;;;4877797;29;20708;-75
2022/06/03 05:24:13;;;;;;;6.90;6.20;;;14.50;99.90;;;;;;4877329;29;20851;-76
2022/06/03 05:27:01;;;;;;;10.33;5.60;;;14.50;99.90;;;;;;4878695;29;20573;-76
2022/06/03 05:29:42;;;;;;;5.90;5.40;;;14.70;99.90;;;;;;4879102;29;20438;-75
2022/06/03 05:32:36;;;;;;;9.37;6.57;;;14.80;99.90;;;;;;4878584;29;20469;-75
2022/06/03 05:35:13;;;;;;;6.90;6.20;;;14.90;99.90;;;;;;4878867;29;20525;-75
2022/06/03 05:37:42;;;;;;;6.70;5.50;;;15.10;99.90;;;;;;4880313;29;20437;-75
2022/06/03 05:40:15;;;;;;;5.53;5.00;;;15.20;99.90;;;;;;4881972;29;20576;-75
2022/06/03 05:42:52;;;;;;;5.60;5.10;;;15.20;99.90;;;;;;4882128;29;20791;-75
2022/06/03 05:45:51;;;;;;;7.00;6.27;;;15.30;99.90;;;;;;4881919;29;20436;-76
2022/06/03 05:48:26;;;;;;;11.77;5.40;;;15.20;99.90;;;;;;4881902;29;20937;-76
2022/06/03 05:50:57;;;;;;;7.07;5.30;;;15.30;99.90;;;;;;4881994;29;20508;-76
2022/06/03 05:53:31;;;;;;;13.33;6.40;;;15.40;99.90;;;;;;4881839;29;20566;-76
2022/06/03 05:56:18;;;;;;;5.70;5.17;;;15.50;99.90;;;;;;4881919;29;20783;-76
2022/06/03 05:59:05;;;;;;;6.37;5.13;;;15.60;99.90;;;;;;4881695;29;20461;-76
2022/06/03 06:01:44;;;;;;;5.90;5.10;;;15.70;99.90;;;;;;4881792;29;20438;-76
2022/06/03 06:04:22;;;;;;;7.20;5.70;;;15.80;99.90;;;;;;4881716;29;20421;-76
2022/06/03 06:07:11;;;;;;;7.60;5.80;;;15.90;99.90;;;;;;4881702;29;20456;-76
2022/06/03 06:09:53;;;;;;;5.73;5.13;;;16.00;99.90;;;;;;4881623;29;20462;-76
2022/06/03 06:12:47;;;;;;;9.20;6.43;;;16.10;99.90;;;;;;4881666;29;20465;-76
2022/06/03 06:15:27;;;;;;;5.20;4.70;;;16.20;99.90;;;;;;4881585;29;20414;-76
2022/06/03 06:17:59;;;;;;;6.10;5.20;;;16.20;99.90;;;;;;4881490;29;20516;-76
2022/06/03 06:21:02;;;;;;;7.30;5.03;;;16.30;99.90;;;;;;4895760;29;20871;-76
2022/06/03 06:23:40;;;;;;;6.10;5.30;;;16.40;99.90;;;;;;4880182;29;20441;-76
2022/06/03 06:26:12;;;;;;;6.70;5.03;;;16.50;99.90;;;;;;4881544;29;20818;-76
2022/06/03 06:29:04;;;;;;;6.70;4.80;;;16.60;99.90;;;;;;4881271;29;20461;-76
2022/06/03 06:32:09;;;;;;;5.50;5.00;;;16.70;99.90;;;;;;4880936;29;20530;-76
2022/06/03 06:35:07;;;;;;;7.37;5.90;;;16.80;99.90;;;;;;4881126;29;20448;-76
2022/06/03 06:37:54;;;;;;;7.07;5.40;;;16.90;99.90;;;;;;4881155;29;20434;-76
2022/06/03 06:40:45;;;;;;;5.90;5.27;;;17.00;99.90;;;;;;4881044;29;20477;-76
2022/06/03 06:43:27;;;;;;;7.50;5.93;;;16.90;99.90;;;;;;4881050;29;20429;-76
2022/06/03 06:45:59;;;;;;;8.23;5.70;;;17.10;99.90;;;;;;4881077;29;20560;-76
2022/06/03 06:48:40;;;;;;;5.67;5.17;;;17.20;99.90;;;;;;4879895;29;20428;-76
2022/06/03 06:51:30;;;;;;;5.50;5.07;;;17.30;99.90;;;;;;4880927;29;20418;-76
2022/06/03 06:54:20;;;;;;;8.20;5.40;;;17.40;99.90;;;;;;4880940;29;20759;-76
2022/06/03 06:56:53;;;;;;;7.10;5.30;;;17.50;99.90;;;;;;4880756;29;20445;-76
2022/06/03 06:59:34;;;;;;;6.43;5.83;;;17.50;99.90;;;;;;4880719;29;21043;-76
2022/06/03 07:02:03;;;;;;;4.60;4.20;;;17.60;99.90;;;;;;4881113;29;20413;-76
2022/06/03 07:04:34;;;;;;;5.97;4.40;;;17.80;99.90;;;;;;4880655;29;20434;-76
2022/06/03 07:07:19;;;;;;;5.33;4.83;;;18.00;99.90;;;;;;4880634;29;20425;-76
2022/06/03 07:10:02;;;;;;;6.90;5.30;;;18.00;99.90;;;;;;4880641;29;20788;-76
2022/06/03 07:12:35;;;;;;;4.40;4.00;;;18.00;99.90;;;;;;4880483;29;20948;-76
2022/06/03 07:15:17;;;;;;;9.50;4.50;;;18.10;99.90;;;;;;4880562;29;20492;-76
2022/06/03 07:21:14;;;;;;;7.40;4.77;;;18.30;99.90;;;;;;4880322;29;20533;-76
2022/06/03 07:23:51;;;;;;;8.50;4.03;;;18.30;99.90;;;;;;4879083;29;20475;-75
2022/06/03 07:26:33;;;;;;;4.37;4.00;;;18.50;99.90;;;;;;4880300;29;20437;-76
2022/06/03 07:29:01;;;;;;;4.20;3.80;;;18.70;99.90;;;;;;4880328;29;20794;-76
2022/06/03 07:31:46;;;;;;;3.73;3.43;;;18.70;99.90;;;;;;4879918;29;20465;-75
2022/06/03 07:34:18;;;;;;;4.50;3.80;;;18.80;99.90;;;;;;4880205;29;20827;-76
2022/06/03 07:36:49;;;;;;;6.50;3.50;;;19.00;99.90;;;;;;4879973;29;20441;-76
2022/06/03 07:39:30;;;;;;;4.03;3.23;;;19.20;99.90;;;;;;4879758;29;20466;-76
2022/06/03 07:42:16;;;;;;;3.97;3.50;;;19.30;99.90;;;;;;4879838;29;20485;-76
2022/06/03 07:45:16;;;;;;;6.10;3.80;;;19.30;99.90;;;;;;4880030;29;20418;-76
2022/06/03 07:47:42;;;;;;;6.03;3.70;;;19.30;99.90;;;;;;4894277;29;20438;-78
2022/06/03 07:50:16;;;;;;;4.23;3.83;;;19.20;99.90;;;;;;4879931;29;20422;-77
2022/06/03 07:53:10;;;;;;;4.80;3.07;;;19.30;99.90;;;;;;4879821;29;20177;-77
2022/06/03 07:55:35;;;;;;;4.60;4.27;;;19.30;99.90;;;;;;4879790;29;20758;-76
2022/06/03 07:58:09;;;;;;;6.40;4.57;;;19.30;99.90;;;;;;4879816;29;20440;-76
2022/06/03 08:00:39;;;;;;;3.50;3.20;;;19.40;99.90;;;;;;4879296;29;20224;-77
2022/06/03 08:03:18;;;;;;;4.67;4.27;;;19.40;99.90;;;;;;4879686;29;20437;-77
2022/06/03 08:05:46;;;;;;;4.53;4.23;;;19.60;99.90;;;;;;4878470;29;20520;-76
2022/06/03 08:11:01;;;;;;;8.07;4.57;;;19.70;99.90;;;;;;4879852;29;20477;-75
2022/06/03 08:13:44;;;;;;;4.43;3.40;;;19.80;99.90;;;;;;4879498;29;20447;-75
2022/06/03 08:16:25;;;;;;;4.50;3.33;;;19.80;99.90;;;;;;4879582;29;20457;-74
2022/06/03 08:18:55;;;;;;;5.72;4.00;;;19.90;99.90;;;;;;4878916;29;20486;-78
2022/06/03 08:21:31;;;;;;;3.97;3.67;;;19.90;99.90;;;;;;4879358;29;20240;-76
2022/06/03 08:23:59;;;;;;;5.53;3.63;;;19.80;99.90;;;;;;4879541;29;20432;-76
2022/06/03 08:26:27;;;;;;;3.70;3.37;;;19.70;99.90;;;;;;4879302;29;20540;-76
2022/06/03 08:29:24;;;;;;;5.20;3.10;;;19.70;99.90;;;;;;4879323;29;20445;-76
2022/06/03 08:31:50;;;;;;;3.33;3.03;;;19.90;99.90;;;;;;4878243;29;20601;-76
2022/06/03 08:34:33;;;;;;;3.70;3.40;;;20.10;99.90;;;;;;4879025;29;20800;-74
2022/06/03 08:36:59;;;;;;;3.63;3.40;;;20.10;99.90;;;;;;4879252;29;20516;-73
2022/06/03 08:39:29;;;;;;;6.40;3.83;;;20.20;99.90;;;;;;4878901;29;20498;-74
2022/06/03 08:41:58;;;;;;;6.77;4.10;;;20.30;99.90;;;;;;4878851;29;20449;-74
2022/06/03 08:44:29;;;;;;;3.17;2.87;;;20.30;99.90;;;;;;4879003;29;20425;-76
2022/06/03 08:46:55;;;;;;;4.43;3.60;;;20.40;99.90;;;;;;4879539;29;20430;-76
2022/06/03 08:49:26;;;;;;;3.30;3.00;;;20.50;99.90;;;;;;4879526;29;20417;-75
2022/06/03 08:52:06;;;;;;;5.73;3.80;;;20.50;99.90;;;;;;4879690;29;20184;-76
2022/06/03 08:54:40;;;;;;;3.97;3.67;;;20.60;99.90;;;;;;4881264;29;20441;-81
2022/06/03 08:57:26;;;;;;;3.97;3.00;;;20.70;99.90;;;;;;4880170;29;20465;-79
2022/06/03 09:00:20;;;;;;;4.60;3.50;;;20.60;99.90;;;;;;4879788;29;20568;-77
2022/06/03 09:02:57;;;;;;;4.23;3.60;;;20.80;99.90;;;;;;4879149;29;20433;-76
2022/06/03 09:05:39;;;;;;;4.13;3.73;;;20.80;99.90;;;;;;4878947;29;20429;-79
2022/06/03 09:08:22;;;;;;;3.50;3.20;;;20.80;99.90;;;;;;4879125;29;20513;-80
2022/06/03 09:10:58;;;;;;;3.80;2.97;;;20.90;99.90;;;;;;4879293;29;20438;-80
2022/06/03 09:13:51;;;;;;;3.87;3.47;;;21.10;99.90;;;;;;4882673;29;20425;-80
2022/06/03 09:16:18;;;;;;;4.83;4.43;;;20.80;99.90;;;;;;4899967;29;20468;-80
2022/06/03 09:18:59;;;;;;;3.30;3.00;;;21.00;99.90;;;;;;4901286;29;20476;-75
2022/06/03 09:21:28;;;;;;;3.77;3.47;;;21.10;99.90;;;;;;4901164;29;20429;-74
2022/06/03 09:24:16;;;;;;;6.60;3.50;;;21.20;99.90;;;;;;4900967;29;20536;-76
2022/06/03 09:26:46;;;;;;;7.00;3.53;;;21.10;99.90;;;;;;4900988;29;20435;-77
2022/06/03 09:29:13;;;;;;;3.87;3.40;;;21.00;99.90;;;;;;4901103;29;20429;-74
2022/06/03 09:31:45;;;;;;;3.70;3.40;;;21.00;99.90;;;;;;4900740;29;20472;-74
2022/06/03 09:34:12;;;;;;;3.83;3.20;;;21.00;99.90;;;;;;4901023;29;20523;-74
2022/06/03 09:36:38;;;;;;;6.97;4.17;;;21.10;99.90;;;;;;4900948;29;20428;-74
2022/06/03 09:39:12;;;;;;;4.67;4.20;;;21.20;99.90;;;;;;4900730;29;20492;-78
2022/06/03 09:41:41;;;;;;;4.80;3.60;;;21.30;99.90;;;;;;4900861;29;20432;-78
2022/06/03 09:44:11;;;;;;;3.67;3.37;;;21.40;99.90;;;;;;4900728;29;20437;-78
2022/06/03 09:46:38;;;;;;;3.10;2.70;;;21.50;99.90;;;;;;4900700;29;20433;-79
2022/06/03 09:49:05;;;;;;;6.30;3.47;;;21.50;99.90;;;;;;4900690;29;20476;-79
2022/06/03 09:51:56;;;;;;;5.63;3.47;;;21.60;99.90;;;;;;4900647;29;20440;-79
2022/06/03 09:54:25;;;;;;;4.60;3.73;;;21.70;99.90;;;;;;4900659;29;20428;-79
2022/06/03 09:56:52;;;;;;;4.43;3.60;;;21.90;99.90;;;;;;4900519;29;20433;-79
2022/06/03 09:59:20;;;;;;;3.73;3.40;;;21.90;99.80;;;;;;4900450;29;20500;-78
2022/06/03 10:01:46;;;;;;;3.97;3.63;;;22.10;99.90;;;;;;4900413;29;20468;-78
2022/06/03 10:04:12;;;;;;;3.40;3.10;;;21.90;99.90;;;;;;4900395;29;20449;-74
2022/06/03 10:06:47;;;;;;;8.23;4.70;;;21.80;99.50;;;;;;4900409;29;20433;-73
2022/06/03 10:15:37;;;;;;;3.57;3.27;;;22.00;99.30;;;;;;4900628;29;20450;-75
2022/06/03 10:17:31;;;;;;;3.50;3.20;;;22.10;97.60;;;;;;4900014;29;20428;-76
2022/06/03 10:19:57;;;;;;;3.07;2.77;;;22.20;98.90;;;;;;4899975;29;20484;-80
2022/06/03 10:22:24;;;;;;;3.53;2.97;;;22.30;99.90;;;;;;4899886;29;20212;-81
2022/06/03 10:24:49;;;;;;;3.17;2.83;;;22.40;99.90;;;;;;4900085;29;20180;-82
2022/06/03 10:27:18;;;;;;;3.77;2.70;;;22.50;97.10;;;;;;4898739;29;20433;-82
2022/06/03 10:29:49;;;;;;;3.57;3.27;;;22.70;95.50;;;;;;4899200;29;20267;-82
2022/06/03 10:32:18;;;;;;;7.13;2.90;;;22.70;95.40;;;;;;4899708;29;20472;-82
2022/06/03 10:34:44;;;;;;;2.90;2.70;;;22.60;96.10;;;;;;4899920;29;20523;-82
2022/06/03 10:37:14;;;;;;;3.17;2.90;;;22.70;95.80;;;;;;4899827;29;20432;-82
2022/06/03 10:39:43;;;;;;;4.30;3.03;;;22.60;95.90;;;;;;4899704;29;20497;-82
2022/06/03 10:42:17;;;;;;;2.70;2.50;;;22.50;93.90;;;;;;4899733;29;20924;-82
2022/06/03 10:44:55;;;;;;;2.97;2.67;;;22.60;95.70;;;;;;4899699;29;20431;-84
2022/06/03 10:47:33;;;;;;;5.00;2.40;;;22.60;93.10;;;;;;4899810;29;20428;-84
2022/06/03 10:50:03;;;;;;;3.43;2.20;;;22.70;94.50;;;;;;4899756;29;20436;-81
2022/06/03 11:01:14;;;;;;;2.80;1.90;;;22.50;93.60;;;;;;4899680;29;20452;-81
2022/06/03 11:03:41;;;;;;;3.80;2.40;;;22.60;93.30;;;;;;4899547;29;20844;-81
2022/06/03 11:06:11;;;;;;;3.50;2.63;;;22.70;91.20;;;;;;4899468;29;20838;-75
2022/06/03 11:08:53;;;;;;;3.47;2.40;;;22.70;91.70;;;;;;4899237;29;20451;-75
2022/06/03 11:11:39;;;;;;;3.00;2.33;;;22.60;91.70;;;;;;4899019;29;20929;-75
2022/06/03 11:14:34;;;;;;;2.20;2.00;;;22.80;92.70;;;;;;4899257;29;20514;-75
2022/06/03 11:17:04;;;;;;;3.00;2.10;;;22.90;93.20;;;;;;4899195;29;20813;-75
2022/06/03 11:19:33;;;;;;;2.50;2.30;;;23.10;89.60;;;;;;4895099;29;20498;-74
2022/06/03 11:22:18;;;;;;;2.83;2.50;;;23.00;90.00;;;;;;4897474;29;20432;-75
2022/06/03 11:25:13;;;;;;;3.43;3.13;;;23.10;91.00;;;;;;4898824;29;20437;-75
2022/06/03 11:27:50;;;;;;;2.20;2.00;;;23.40;87.80;;;;;;4898733;29;20524;-75
2022/06/03 11:30:20;;;;;;;2.40;2.20;;;23.40;84.00;;;;;;4897536;29;20532;-75
2022/06/03 11:32:50;;;;;;;3.43;2.70;;;23.30;82.50;;;;;;4897495;29;20539;-73
2022/06/03 11:35:25;;;;;;;2.53;2.00;;;23.30;85.10;;;;;;4898055;29;20515;-72
2022/06/03 11:37:52;;;;;;;2.73;2.43;;;23.40;86.70;;;;;;4898450;29;20511;-73
2022/06/03 11:40:24;;;;;;;4.23;1.87;;;23.50;84.20;;;;;;4898461;29;20484;-72
2022/06/03 11:43:17;;;;;;;2.37;2.17;;;23.30;87.50;;;;;;4898491;29;20440;-72
2022/06/03 11:45:50;;;;;;;2.57;2.20;;;23.10;87.20;;;;;;4898440;29;20455;-72
2022/06/03 11:48:19;;;;;;;2.20;2.00;;;23.00;90.40;;;;;;4898207;29;20500;-72
2022/06/03 11:50:44;;;;;;;3.43;2.10;;;23.00;86.40;;;;;;4898140;29;20441;-73
2022/06/03 11:53:10;;;;;;;5.63;2.33;;;23.00;90.00;;;;;;4898150;29;20492;-72
2022/06/03 11:55:38;;;;;;;4.90;2.43;;;23.10;87.20;;;;;;4898233;29;20181;-73
2022/06/03 11:58:20;;;;;;;6.03;2.40;;;23.10;85.60;;;;;;4898431;29;20275;-72
2022/06/03 12:00:59;;;;;;;3.00;2.70;;;23.20;84.50;;;;;;4898266;29;20484;-73
2022/06/03 12:03:38;;;;;;;2.70;2.03;;;23.20;81.10;;;;;;4897136;29;20966;-72
2022/06/03 12:06:17;;;;;;;2.47;2.27;;;23.20;85.10;;;;;;4898305;29;20436;-73
2022/06/03 12:09:15;;;;;;;5.37;2.70;;;23.20;87.80;;;;;;4897156;29;20947;-73
2022/06/03 12:14:45;;;;;;;1.90;1.80;;;23.50;82.60;;;;;;4897957;29;20455;-74
2022/06/03 12:17:11;;;;;;;2.60;2.17;;;23.50;80.20;;;;;;4898083;29;20432;-72
2022/06/03 12:19:39;;;;;;;1.90;1.80;;;23.50;83.20;;;;;;4898041;29;20510;-73
2022/06/03 12:22:19;;;;;;;6.40;2.63;;;23.50;85.30;;;;;;4897631;29;20181;-73
2022/06/03 12:24:48;;;;;;;4.63;2.00;;;23.60;84.10;;;;;;4897008;29;20801;-73
2022/06/03 12:27:23;;;;;;;2.30;2.10;;;23.70;83.30;;;;;;4897907;29;20474;-73
2022/06/03 12:30:09;;;;;;;2.23;2.03;;;23.80;79.90;;;;;;4898065;29;20798;-75
2022/06/03 12:32:38;;;;;;;2.03;1.83;;;23.90;79.10;;;;;;4897025;29;20476;-73
2022/06/03 12:35:41;;;;;;;2.80;2.53;;;24.00;82.40;;;;;;4898022;29;20846;-73
2022/06/03 12:38:22;;;;;;;1.93;1.83;;;23.90;76.70;;;;;;4898047;29;20488;-74
2022/06/03 12:40:53;;;;;;;2.60;2.00;;;24.00;79.40;;;;;;4897676;29;20480;-73
2022/06/03 12:43:46;;;;;;;3.33;1.80;;;24.10;81.70;;;;;;4897523;29;20425;-76
2022/06/03 12:46:42;;;;;;;3.83;2.10;;;24.30;77.10;;;;;;4894538;29;20476;-71
2022/06/03 12:49:31;;;;;;;4.23;2.33;;;24.30;75.30;;;;;;4902146;29;20448;-73
2022/06/03 12:52:01;;;;;;;3.73;2.03;;;24.10;77.20;;;;;;4901399;29;20834;-79
2022/06/03 12:54:27;;;;;;;4.70;2.30;;;24.10;80.40;;;;;;4898898;29;20444;-74
2022/06/03 12:57:06;;;;;;;2.43;2.23;;;24.10;75.10;;;;;;4900704;29;20433;-74
2022/06/03 12:59:44;;;;;;;2.00;1.90;;;23.90;76.50;;;;;;4900211;29;20559;-76
2022/06/03 13:02:21;;;;;;;2.10;1.90;;;23.90;77.70;;;;;;4901532;29;20825;-76
2022/06/03 13:04:52;;;;;;;5.80;2.53;;;23.90;73.40;;;;;;4900838;29;20420;-74
2022/06/03 13:07:27;;;;;;;2.57;2.03;;;24.00;75.50;;;;;;4900328;29;20474;-74
2022/06/03 13:10:17;;;;;;;2.77;2.00;;;24.10;72.00;;;;;;4899408;29;20494;-74
2022/06/03 13:12:43;;;;;;;2.37;2.17;;;24.10;74.10;;;;;;4894632;29;20441;-75
2022/06/03 13:15:20;;;;;;;2.30;2.00;;;24.30;73.60;;;;;;4890599;29;20445;-75
2022/06/03 13:18:18;;;;;;;2.07;1.97;;;24.50;71.70;;;;;;4890344;29;20432;-75
2022/06/03 13:20:49;;;;;;;2.03;1.80;;;24.70;69.60;;;;;;4892263;29;20482;-74
2022/06/03 13:23:30;;;;;;;2.50;2.13;;;24.70;73.00;;;;;;4891591;29;20440;-74
2022/06/03 13:26:21;;;;;;;1.93;1.83;;;24.70;71.70;;;;;;4891646;29;20792;-75
2022/06/03 13:29:33;;;;;;;2.67;1.80;;;24.90;69.80;;;;;;4892216;29;20440;-74
2022/06/03 13:32:02;;;;;;;2.40;2.20;;;24.90;70.30;;;;;;4891316;29;20469;-73
2022/06/03 13:34:30;;;;;;;2.80;1.73;;;24.90;72.20;;;;;;4890183;29;20489;-72
2022/06/03 13:37:34;;;;;;;5.73;2.37;;;24.90;69.00;;;;;;4890715;29;20568;-72
2022/06/03 13:40:04;;;;;;;2.33;2.13;;;24.90;70.70;;;;;;4891910;29;20487;-73
2022/06/03 13:42:59;;;;;;;3.77;1.97;;;25.00;70.30;;;;;;4891707;29;20489;-73
2022/06/03 13:45:51;;;;;;;5.37;1.90;;;25.20;72.20;;;;;;4891862;29;20528;-73
2022/06/03 13:48:42;;;;;;;2.23;1.63;;;25.30;70.20;;;;;;4890025;29;20481;-73
2022/06/03 13:51:35;;;;;;;2.13;1.70;;;25.40;67.30;;;;;;4890310;29;20429;-72
2022/06/03 13:54:08;;;;;;;3.03;2.17;;;25.50;65.80;;;;;;4891935;29;20581;-74
2022/06/03 13:56:35;;;;;;;2.73;2.47;;;25.50;65.80;;;;;;4889578;29;20437;-74
2022/06/03 13:59:03;;;;;;;2.27;2.10;;;25.60;65.20;;;;;;4889359;29;20467;-73
2022/06/03 14:01:48;;;;;;;4.40;2.17;;;25.70;64.60;;;;;;4890144;29;20442;-74
2022/06/03 14:04:32;;;;;;;4.07;1.80;;;25.80;67.50;;;;;;4890731;29;20513;-73
2022/06/03 14:07:02;;;;;;;1.77;1.67;;;25.70;66.50;;;;;;4891180;29;20529;-74
2022/06/03 14:09:38;;;;;;;2.33;2.13;;;25.60;66.50;;;;;;4889785;29;20453;-74
2022/06/03 14:12:06;;;;;;;2.23;2.07;;;25.60;65.10;;;;;;4889275;29;20436;-74
2022/06/03 14:14:56;;;;;;;2.17;1.90;;;25.60;64.20;;;;;;4881338;29;20524;-74
2022/06/03 14:17:47;;;;;;;4.40;2.47;;;25.50;62.20;;;;;;4881522;29;20516;-74
2022/06/03 14:20:20;;;;;;;3.20;2.00;;;25.50;63.70;;;;;;4881399;29;20481;-74
2022/06/03 14:23:24;;;;;;;2.07;1.90;;;25.40;63.60;;;;;;4881420;29;20426;-74
2022/06/03 14:26:01;;;;;;;2.80;2.30;;;25.20;63.90;;;;;;4881481;29;20452;-74
2022/06/03 14:29:00;;;;;;;1.77;1.67;;;25.20;66.00;;;;;;4881296;29;20425;-74
2022/06/03 14:31:57;;;;;;;2.70;2.50;;;24.90;66.80;;;;;;4881057;29;20560;-74
2022/06/03 14:34:31;;;;;;;2.90;2.70;;;25.00;63.70;;;;;;4880614;29;20473;-74
2022/06/03 14:36:58;;;;;;;3.20;2.30;;;24.80;74.30;;;;;;4881204;29;20430;-74
2022/06/03 14:39:28;;;;;;;2.37;2.17;;;24.70;70.90;;;;;;4880974;29;20564;-74
2022/06/03 14:41:59;;;;;;;2.70;2.07;;;24.50;72.00;;;;;;4888550;29;20449;-74
2022/06/03 14:44:27;;;;;;;2.30;1.97;;;24.30;68.90;;;;;;4896154;29;20436;-76
2022/06/03 14:47:06;;;;;;;5.17;2.63;;;24.20;72.10;;;;;;4889450;29;20516;-76
2022/06/03 14:49:43;;;;;;;2.17;2.00;;;24.20;69.60;;;;;;4889190;29;20433;-76
2022/06/03 14:52:21;;;;;;;2.50;2.30;;;24.00;73.20;;;;;;4889029;29;20520;-77
2022/06/03 14:55:13;;;;;;;2.30;2.10;;;24.00;71.00;;;;;;4888785;29;20428;-76
2022/06/03 14:57:50;;;;;;;3.10;2.50;;;24.10;71.50;;;;;;4890038;29;20526;-76
2022/06/03 15:00:42;;;;;;;3.50;2.10;;;23.90;69.70;;;;;;4889622;29;20480;-76
2022/06/03 15:03:20;;;;;;;2.60;2.40;;;23.90;70.10;;;;;;4890385;29;20455;-76
2022/06/03 15:05:51;;;;;;;4.13;2.37;;;23.80;71.30;;;;;;4890509;29;20424;-76
2022/06/03 15:08:41;;;;;;;2.57;1.90;;;23.80;68.50;;;;;;4889625;29;20462;-76
2022/06/03 15:11:28;;;;;;;2.40;2.20;;;23.80;70.20;;;;;;4889965;29;20433;-76
2022/06/03 15:13:53;;;;;;;2.40;2.20;;;23.80;69.20;;;;;;4889266;29;21001;-75
2022/06/03 15:16:21;;;;;;;2.60;2.40;;;23.80;70.40;;;;;;4888733;29;20428;-75
2022/06/03 15:18:48;;;;;;;3.90;2.03;;;23.80;68.70;;;;;;4890075;29;20187;-75
2022/06/03 15:21:25;;;;;;;2.17;1.97;;;23.80;70.40;;;;;;4888872;29;20992;-76
2022/06/03 15:23:55;;;;;;;2.10;2.00;;;23.80;69.90;;;;;;4882858;29;20445;-74
2022/06/03 15:26:26;;;;;;;2.10;1.97;;;23.90;70.00;;;;;;4880232;29;20464;-74
2022/06/03 15:28:56;;;;;;;2.80;2.13;;;23.90;70.20;;;;;;4880252;29;20426;-74
2022/06/03 15:31:26;;;;;;;3.60;2.17;;;24.10;68.60;;;;;;4879908;29;20473;-74
2022/06/03 15:33:55;;;;;;;2.20;2.00;;;24.20;69.20;;;;;;4880148;29;20746;-74
2022/06/03 15:36:24;;;;;;;3.27;1.70;;;24.20;67.90;;;;;;4880063;29;20430;-74
2022/06/03 15:38:54;;;;;;;3.00;2.73;;;24.30;70.30;;;;;;4879918;29;20466;-74
2022/06/03 15:41:25;;;;;;;5.77;2.30;;;24.30;70.50;;;;;;4879917;29;20433;-74
2022/06/03 15:43:56;;;;;;;2.33;2.20;;;24.40;68.60;;;;;;4880267;29;20421;-74
2022/06/03 15:46:27;;;;;;;4.03;2.20;;;24.30;68.50;;;;;;4879711;29;20472;-74
2022/06/03 15:48:58;;;;;;;4.30;2.37;;;24.40;69.00;;;;;;4879709;29;20430;-74
2022/06/03 15:51:24;;;;;;;2.10;2.00;;;24.50;66.20;;;;;;4879631;29;20476;-74
2022/06/03 15:53:57;;;;;;;6.23;2.87;;;24.30;68.00;;;;;;4879697;29;20468;-74
2022/06/03 15:56:44;;;;;;;2.80;2.53;;;24.20;72.60;;;;;;4879477;29;20313;-74
2022/06/03 15:59:19;;;;;;;3.90;2.60;;;24.20;68.50;;;;;;4879683;29;20468;-74
2022/06/03 16:01:56;;;;;;;3.40;2.60;;;24.10;71.90;;;;;;4879794;29;20488;-74
2022/06/03 16:04:53;;;;;;;3.00;2.80;;;24.00;74.80;;;;;;4879610;29;20441;-74
2022/06/03 16:07:32;;;;;;;3.30;2.80;;;23.90;77.10;;;;;;4879675;29;20434;-74
2022/06/03 16:10:28;;;;;;;2.80;2.60;;;23.70;77.20;;;;;;4879644;29;20453;-74
2022/06/03 16:12:59;;;;;;;2.90;2.50;;;23.60;78.30;;;;;;4879575;29;20434;-74
2022/06/03 16:15:42;;;;;;;2.97;2.77;;;23.50;79.00;;;;;;4879463;29;20509;-74
2022/06/03 16:18:30;;;;;;;3.67;2.97;;;23.50;78.80;;;;;;4878380;29;20472;-74
2022/06/03 16:21:28;;;;;;;5.40;3.00;;;23.50;79.50;;;;;;4877990;29;20484;-73
2022/06/03 16:24:17;;;;;;;5.07;2.80;;;23.40;82.00;;;;;;4878968;29;20800;-73
2022/06/03 16:26:56;;;;;;;3.57;3.27;;;23.30;82.30;;;;;;4868096;29;20442;-73
2022/06/03 16:29:44;;;;;;;3.10;2.60;;;23.20;81.40;;;;;;4877415;29;20898;-73
2022/06/03 16:32:24;;;;;;;5.17;2.80;;;23.20;79.60;;;;;;4878362;29;20872;-73
2022/06/03 16:35:07;;;;;;;2.70;2.50;;;23.20;80.50;;;;;;4878429;29;20512;-74
2022/06/03 16:37:36;;;;;;;2.87;2.60;;;23.20;82.50;;;;;;4878390;29;20532;-73
2022/06/03 16:40:20;;;;;;;4.27;3.70;;;23.10;81.70;;;;;;4878378;29;20485;-73
2022/06/03 16:43:10;;;;;;;3.40;3.20;;;23.10;81.90;;;;;;4878218;29;20434;-73
2022/06/03 16:48:39;;;;;;;4.23;3.10;;;23.10;82.30;;;;;;4878126;29;20440;-73
2022/06/03 16:51:36;;;;;;;5.87;3.80;;;23.10;82.30;;;;;;4878272;29;20416;-73
2022/06/03 16:54:03;;;;;;;5.90;3.57;;;23.10;83.60;;;;;;4877787;29;20462;-73
2022/06/03 16:56:32;;;;;;;3.30;3.00;;;23.10;83.20;;;;;;4884966;29;20581;-74
2022/06/03 16:59:09;;;;;;;4.60;3.17;;;23.10;83.20;;;;;;4886299;29;20461;-74
2022/06/03 17:01:38;;;;;;;3.47;3.17;;;23.00;83.30;;;;;;4884900;29;20505;-74
2022/06/03 17:04:04;;;;;;;3.20;3.00;;;23.00;84.30;;;;;;4885160;29;20437;-73
2022/06/03 17:06:30;;;;;;;5.83;3.57;;;23.00;84.30;;;;;;4885308;29;20445;-76
2022/06/03 17:08:58;;;;;;;4.30;4.00;;;23.00;84.90;;;;;;4886187;29;20437;-72
2022/06/03 17:11:39;;;;;;;5.60;3.73;;;23.00;85.00;;;;;;4886225;29;20457;-72
2022/06/03 17:14:22;;;;;;;5.33;3.47;;;22.90;84.70;;;;;;4885752;29;20433;-72
2022/06/03 17:16:58;;;;;;;4.73;3.10;;;22.80;84.20;;;;;;4886189;29;21016;-72
2022/06/03 17:19:24;;;;;;;3.70;3.30;;;22.70;84.60;;;;;;4885550;29;20504;-72
2022/06/03 17:22:08;;;;;;;3.50;3.20;;;22.70;85.80;;;;;;4885592;29;20431;-73
2022/06/03 17:25:09;;;;;;;3.20;2.90;;;22.60;86.50;;;;;;4886909;29;20468;-70
2022/06/03 17:27:57;;;;;;;4.03;3.67;;;22.60;87.00;;;;;;4869287;29;20584;-69
2022/06/03 17:30:30;;;;;;;5.67;3.40;;;22.60;86.70;;;;;;4877633;29;20457;-69
2022/06/03 17:33:03;;;;;;;3.73;3.53;;;22.60;86.60;;;;;;4879183;29;20428;-69
2022/06/03 17:36:06;;;;;;;4.73;3.37;;;22.60;87.40;;;;;;4881513;29;20441;-69
2022/06/03 17:39:03;;;;;;;7.47;3.23;;;22.50;87.00;;;;;;4881087;29;20564;-70
2022/06/03 17:41:52;;;;;;;4.33;3.50;;;22.50;88.10;;;;;;4876983;29;20449;-69
2022/06/03 17:44:38;;;;;;;4.97;3.30;;;22.40;87.50;;;;;;4881197;29;20440;-69
2022/06/03 17:47:14;;;;;;;4.30;3.67;;;22.30;87.90;;;;;;4881174;29;20816;-68
2022/06/03 17:50:22;;;;;;;4.17;3.70;;;22.40;88.60;;;;;;4881284;29;20820;-70
2022/06/03 17:55:35;;;;;;;4.27;3.87;;;22.40;87.40;;;;;;4886109;29;20440;-70
2022/06/03 17:58:25;;;;;;;4.43;3.90;;;22.30;87.40;;;;;;4899871;29;20455;-70
2022/06/03 18:01:08;;;;;;;3.63;3.30;;;22.30;87.90;;;;;;4899612;29;20494;-70
2022/06/03 18:03:59;;;;;;;3.93;3.63;;;22.30;87.30;;;;;;4899953;29;20425;-68
2022/06/03 18:06:47;;;;;;;5.83;3.97;;;22.30;86.90;;;;;;4899349;29;20439;-68
2022/06/03 18:09:47;;;;;;;4.43;4.13;;;22.40;87.20;;;;;;4899492;29;20496;-71
2022/06/03 18:12:18;;;;;;;5.83;3.80;;;22.50;86.70;;;;;;4897146;29;20432;-68
2022/06/03 18:14:55;;;;;;;5.23;3.70;;;22.50;86.00;;;;;;4898753;29;20887;-68
2022/06/03 18:17:29;;;;;;;5.43;3.87;;;22.50;87.00;;;;;;4899290;29;20436;-68
2022/06/03 18:20:05;;;;;;;5.30;3.63;;;22.40;86.20;;;;;;4899284;29;20476;-68
2022/06/03 18:22:42;;;;;;;3.50;3.20;;;22.40;85.70;;;;;;4899287;29;20461;-71
2022/06/03 18:25:16;;;;;;;5.77;3.50;;;22.40;87.50;;;;;;4899045;29;20919;-69
2022/06/03 18:28:09;;;;;;;4.50;3.47;;;22.30;85.90;;;;;;4899112;29;20427;-69
2022/06/03 18:30:37;;;;;;;7.00;3.60;;;22.20;86.00;;;;;;4898867;29;20559;-70
2022/06/03 18:33:35;;;;;;;15.93;4.10;;;22.20;86.80;;;;;;4899040;29;20620;-70
2022/06/03 18:36:13;;;;;;;3.50;3.20;;;22.10;87.40;;;;;;4899076;29;20429;-71
2022/06/03 18:39:03;;;;;;;4.00;3.70;;;22.10;85.90;;;;;;4899121;29;20484;-70
2022/06/03 18:41:50;;;;;;;13.13;3.50;;;21.90;86.10;;;;;;4898897;29;20444;-69
2022/06/03 18:44:33;;;;;;;4.37;3.97;;;21.90;87.40;;;;;;4898741;29;20794;-70
2022/06/03 18:47:29;;;;;;;4.27;3.80;;;21.80;87.40;;;;;;4898861;29;20447;-70